sensor_id;sensor_type;location;lat;lon;timestamp;P1;durP1;ratioP1;P2;durP2;ratioP2
18653;SDS011;9456;47.824;16.228;2023-05-07T00:00:13;12.20;;;11.00;;
18653;SDS011;9456;47.824;16.228;2023-05-07T00:02:42;11.37;;;10.17;;
18653;SDS011;9456;47.824;16.228;2023-05-07T00:05:12;10.77;;;9.73;;
18653;SDS011;9456;47.824;16.228;2023-05-07T00:07:40;12.00;;;10.63;;
18653;SDS011;9456;47.824;16.228;2023-05-07T00:10:10;10.63;;;9.50;;
18653;SDS011;9456;47.824;16.228;2023-05-07T00:12:39;10.90;;;9.90;;
18653;SDS011;9456;47.824;16.228;2023-05-07T00:15:09;11.27;;;10.27;;
18653;SDS011;9456;47.824;16.228;2023-05-07T00:17:39;11.20;;;10.10;;
18653;SDS011;9456;47.824;16.228;2023-05-07T00:20:09;10.80;;;9.80;;
18653;SDS011;9456;47.824;16.228;2023-05-07T00:22:38;10.67;;;9.60;;
18653;SDS011;9456;47.824;16.228;2023-05-07T00:25:08;11.23;;;10.13;;
18653;SDS011;9456;47.824;16.228;2023-05-07T00:27:37;11.43;;;10.23;;
18653;SDS011;9456;47.824;16.228;2023-05-07T00:30:07;9.90;;;9.00;;
18653;SDS011;9456;47.824;16.228;2023-05-07T00:32:37;11.20;;;9.23;;
18653;SDS011;9456;47.824;16.228;2023-05-07T00:35:07;10.03;;;9.03;;
18653;SDS011;9456;47.824;16.228;2023-05-07T00:37:36;9.13;;;8.33;;
18653;SDS011;9456;47.824;16.228;2023-05-07T00:40:07;9.70;;;8.80;;
18653;SDS011;9456;47.824;16.228;2023-05-07T00:42:36;8.73;;;7.93;;
18653;SDS011;9456;47.824;16.228;2023-05-07T00:45:06;9.07;;;8.27;;
18653;SDS011;9456;47.824;16.228;2023-05-07T00:47:36;9.67;;;8.73;;
18653;SDS011;9456;47.824;16.228;2023-05-07T00:50:06;10.80;;;9.23;;
18653;SDS011;9456;47.824;16.228;2023-05-07T00:52:36;9.87;;;8.87;;
18653;SDS011;9456;47.824;16.228;2023-05-07T00:55:06;8.93;;;8.17;;
18653;SDS011;9456;47.824;16.228;2023-05-07T00:57:37;9.50;;;8.27;;
18653;SDS011;9456;47.824;16.228;2023-05-07T01:00:07;9.63;;;8.70;;
18653;SDS011;9456;47.824;16.228;2023-05-07T01:02:36;11.20;;;10.10;;
18653;SDS011;9456;47.824;16.228;2023-05-07T01:05:05;10.97;;;9.97;;
18653;SDS011;9456;47.824;16.228;2023-05-07T01:07:35;10.03;;;9.13;;
18653;SDS011;9456;47.824;16.228;2023-05-07T01:10:04;10.77;;;9.53;;
18653;SDS011;9456;47.824;16.228;2023-05-07T01:12:33;13.50;;;9.47;;
18653;SDS011;9456;47.824;16.228;2023-05-07T01:15:02;10.23;;;9.33;;
18653;SDS011;9456;47.824;16.228;2023-05-07T01:17:34;9.97;;;9.00;;
18653;SDS011;9456;47.824;16.228;2023-05-07T01:20:03;9.90;;;9.00;;
18653;SDS011;9456;47.824;16.228;2023-05-07T01:22:34;9.27;;;8.40;;
18653;SDS011;9456;47.824;16.228;2023-05-07T01:25:04;9.53;;;8.53;;
18653;SDS011;9456;47.824;16.228;2023-05-07T01:27:33;10.20;;;9.20;;
18653;SDS011;9456;47.824;16.228;2023-05-07T01:30:02;9.87;;;8.60;;
18653;SDS011;9456;47.824;16.228;2023-05-07T01:32:33;11.07;;;10.03;;
18653;SDS011;9456;47.824;16.228;2023-05-07T01:35:02;11.10;;;10.00;;
18653;SDS011;9456;47.824;16.228;2023-05-07T01:37:31;10.50;;;9.27;;
18653;SDS011;9456;47.824;16.228;2023-05-07T01:40:00;11.70;;;10.50;;
18653;SDS011;9456;47.824;16.228;2023-05-07T01:42:29;10.40;;;9.50;;
18653;SDS011;9456;47.824;16.228;2023-05-07T01:44:58;9.50;;;8.70;;
18653;SDS011;9456;47.824;16.228;2023-05-07T01:47:27;10.17;;;9.27;;
18653;SDS011;9456;47.824;16.228;2023-05-07T01:49:56;8.73;;;7.93;;
18653;SDS011;9456;47.824;16.228;2023-05-07T01:52:25;8.53;;;7.83;;
18653;SDS011;9456;47.824;16.228;2023-05-07T01:54:55;9.70;;;8.70;;
18653;SDS011;9456;47.824;16.228;2023-05-07T01:57:24;9.40;;;8.50;;
18653;SDS011;9456;47.824;16.228;2023-05-07T01:59:53;9.70;;;8.80;;
18653;SDS011;9456;47.824;16.228;2023-05-07T02:02:22;8.80;;;8.00;;
18653;SDS011;9456;47.824;16.228;2023-05-07T02:04:51;8.00;;;7.20;;
18653;SDS011;9456;47.824;16.228;2023-05-07T02:07:20;9.00;;;6.90;;
18653;SDS011;9456;47.824;16.228;2023-05-07T02:09:49;8.77;;;7.27;;
18653;SDS011;9456;47.824;16.228;2023-05-07T02:12:17;7.27;;;6.63;;
18653;SDS011;9456;47.824;16.228;2023-05-07T02:14:46;7.07;;;6.47;;
18653;SDS011;9456;47.824;16.228;2023-05-07T02:17:15;8.17;;;6.73;;
18653;SDS011;9456;47.824;16.228;2023-05-07T02:19:44;8.70;;;6.83;;
18653;SDS011;9456;47.824;16.228;2023-05-07T02:22:14;8.97;;;7.60;;
18653;SDS011;9456;47.824;16.228;2023-05-07T02:24:43;7.33;;;6.63;;
18653;SDS011;9456;47.824;16.228;2023-05-07T02:27:12;7.37;;;6.70;;
18653;SDS011;9456;47.824;16.228;2023-05-07T02:29:41;10.23;;;6.60;;
18653;SDS011;9456;47.824;16.228;2023-05-07T02:32:10;8.07;;;7.37;;
18653;SDS011;9456;47.824;16.228;2023-05-07T02:34:39;10.13;;;7.20;;
18653;SDS011;9456;47.824;16.228;2023-05-07T02:37:07;8.10;;;7.30;;
18653;SDS011;9456;47.824;16.228;2023-05-07T02:39:37;7.57;;;6.77;;
18653;SDS011;9456;47.824;16.228;2023-05-07T02:42:05;7.70;;;7.00;;
18653;SDS011;9456;47.824;16.228;2023-05-07T02:44:34;8.00;;;7.23;;
18653;SDS011;9456;47.824;16.228;2023-05-07T02:47:03;7.47;;;6.77;;
18653;SDS011;9456;47.824;16.228;2023-05-07T02:49:32;7.13;;;6.53;;
18653;SDS011;9456;47.824;16.228;2023-05-07T02:52:01;7.00;;;6.40;;
18653;SDS011;9456;47.824;16.228;2023-05-07T02:54:30;7.30;;;6.63;;
18653;SDS011;9456;47.824;16.228;2023-05-07T02:56:59;8.93;;;7.47;;
18653;SDS011;9456;47.824;16.228;2023-05-07T02:59:28;7.47;;;6.77;;
18653;SDS011;9456;47.824;16.228;2023-05-07T03:01:57;9.90;;;6.87;;
18653;SDS011;9456;47.824;16.228;2023-05-07T03:04:26;7.57;;;6.87;;
18653;SDS011;9456;47.824;16.228;2023-05-07T03:06:55;8.87;;;8.10;;
18653;SDS011;9456;47.824;16.228;2023-05-07T03:09:24;14.60;;;12.97;;
18653;SDS011;9456;47.824;16.228;2023-05-07T03:11:53;10.77;;;9.73;;
18653;SDS011;9456;47.824;16.228;2023-05-07T03:14:22;13.03;;;11.73;;
18653;SDS011;9456;47.824;16.228;2023-05-07T03:16:51;14.17;;;12.90;;
18653;SDS011;9456;47.824;16.228;2023-05-07T03:19:20;10.60;;;9.53;;
18653;SDS011;9456;47.824;16.228;2023-05-07T03:21:49;10.53;;;8.60;;
18653;SDS011;9456;47.824;16.228;2023-05-07T03:24:19;7.63;;;7.03;;
18653;SDS011;9456;47.824;16.228;2023-05-07T03:26:48;7.83;;;7.17;;
18653;SDS011;9456;47.824;16.228;2023-05-07T03:29:17;8.93;;;8.03;;
18653;SDS011;9456;47.824;16.228;2023-05-07T03:31:46;11.17;;;7.60;;
18653;SDS011;9456;47.824;16.228;2023-05-07T03:34:15;13.07;;;11.77;;
18653;SDS011;9456;47.824;16.228;2023-05-07T03:36:44;10.13;;;9.13;;
18653;SDS011;9456;47.824;16.228;2023-05-07T03:39:13;9.77;;;8.87;;
18653;SDS011;9456;47.824;16.228;2023-05-07T03:41:42;10.10;;;8.57;;
18653;SDS011;9456;47.824;16.228;2023-05-07T03:44:11;9.87;;;8.40;;
18653;SDS011;9456;47.824;16.228;2023-05-07T03:46:40;10.60;;;9.70;;
18653;SDS011;9456;47.824;16.228;2023-05-07T03:49:09;11.53;;;10.37;;
18653;SDS011;9456;47.824;16.228;2023-05-07T03:51:38;11.93;;;10.73;;
18653;SDS011;9456;47.824;16.228;2023-05-07T03:54:07;12.57;;;10.63;;
18653;SDS011;9456;47.824;16.228;2023-05-07T03:56:36;9.57;;;8.77;;
18653;SDS011;9456;47.824;16.228;2023-05-07T03:59:05;8.53;;;7.83;;
18653;SDS011;9456;47.824;16.228;2023-05-07T04:01:34;11.37;;;8.47;;
18653;SDS011;9456;47.824;16.228;2023-05-07T04:04:03;7.57;;;6.87;;
18653;SDS011;9456;47.824;16.228;2023-05-07T04:06:32;6.43;;;5.83;;
18653;SDS011;9456;47.824;16.228;2023-05-07T04:09:01;6.47;;;5.97;;
18653;SDS011;9456;47.824;16.228;2023-05-07T04:11:30;6.13;;;5.53;;
18653;SDS011;9456;47.824;16.228;2023-05-07T04:13:59;5.97;;;5.47;;
18653;SDS011;9456;47.824;16.228;2023-05-07T04:16:28;6.47;;;5.87;;
18653;SDS011;9456;47.824;16.228;2023-05-07T04:18:57;6.87;;;5.87;;
18653;SDS011;9456;47.824;16.228;2023-05-07T04:21:26;6.87;;;6.17;;
18653;SDS011;9456;47.824;16.228;2023-05-07T04:23:55;6.73;;;6.03;;
18653;SDS011;9456;47.824;16.228;2023-05-07T04:26:24;7.53;;;5.83;;
18653;SDS011;9456;47.824;16.228;2023-05-07T04:28:53;8.60;;;6.33;;
18653;SDS011;9456;47.824;16.228;2023-05-07T04:31:22;7.03;;;6.33;;
18653;SDS011;9456;47.824;16.228;2023-05-07T04:33:51;7.30;;;6.30;;
18653;SDS011;9456;47.824;16.228;2023-05-07T04:36:20;7.70;;;7.00;;
18653;SDS011;9456;47.824;16.228;2023-05-07T04:38:49;7.30;;;6.60;;
18653;SDS011;9456;47.824;16.228;2023-05-07T04:41:18;6.63;;;6.13;;
18653;SDS011;9456;47.824;16.228;2023-05-07T04:43:47;13.73;;;6.77;;
18653;SDS011;9456;47.824;16.228;2023-05-07T04:46:16;6.63;;;6.13;;
18653;SDS011;9456;47.824;16.228;2023-05-07T04:48:45;6.73;;;6.13;;
18653;SDS011;9456;47.824;16.228;2023-05-07T04:51:14;7.10;;;6.40;;
18653;SDS011;9456;47.824;16.228;2023-05-07T04:53:43;6.77;;;6.07;;
18653;SDS011;9456;47.824;16.228;2023-05-07T04:56:13;7.53;;;6.03;;
18653;SDS011;9456;47.824;16.228;2023-05-07T04:58:42;6.33;;;5.73;;
18653;SDS011;9456;47.824;16.228;2023-05-07T05:01:12;6.57;;;6.00;;
18653;SDS011;9456;47.824;16.228;2023-05-07T05:03:41;6.70;;;6.10;;
18653;SDS011;9456;47.824;16.228;2023-05-07T05:06:10;6.30;;;5.80;;
18653;SDS011;9456;47.824;16.228;2023-05-07T05:08:39;7.87;;;7.07;;
18653;SDS011;9456;47.824;16.228;2023-05-07T05:11:09;6.63;;;6.10;;
18653;SDS011;9456;47.824;16.228;2023-05-07T05:13:38;6.70;;;6.10;;
18653;SDS011;9456;47.824;16.228;2023-05-07T05:16:07;6.83;;;6.23;;
18653;SDS011;9456;47.824;16.228;2023-05-07T05:18:36;7.00;;;6.40;;
18653;SDS011;9456;47.824;16.228;2023-05-07T05:21:05;7.10;;;6.33;;
18653;SDS011;9456;47.824;16.228;2023-05-07T05:23:36;5.87;;;5.47;;
18653;SDS011;9456;47.824;16.228;2023-05-07T05:26:04;6.07;;;5.57;;
18653;SDS011;9456;47.824;16.228;2023-05-07T05:28:34;6.10;;;5.50;;
18653;SDS011;9456;47.824;16.228;2023-05-07T05:31:04;5.97;;;5.47;;
18653;SDS011;9456;47.824;16.228;2023-05-07T05:33:32;6.43;;;5.80;;
18653;SDS011;9456;47.824;16.228;2023-05-07T05:36:01;6.40;;;5.83;;
18653;SDS011;9456;47.824;16.228;2023-05-07T05:38:30;6.43;;;5.83;;
18653;SDS011;9456;47.824;16.228;2023-05-07T05:40:59;6.00;;;5.40;;
18653;SDS011;9456;47.824;16.228;2023-05-07T05:43:28;6.70;;;5.17;;
18653;SDS011;9456;47.824;16.228;2023-05-07T05:45:57;5.67;;;5.10;;
18653;SDS011;9456;47.824;16.228;2023-05-07T05:48:26;6.03;;;5.10;;
18653;SDS011;9456;47.824;16.228;2023-05-07T05:50:55;6.73;;;5.23;;
18653;SDS011;9456;47.824;16.228;2023-05-07T05:53:24;5.10;;;4.60;;
18653;SDS011;9456;47.824;16.228;2023-05-07T05:55:53;8.10;;;5.40;;
18653;SDS011;9456;47.824;16.228;2023-05-07T05:58:23;6.37;;;5.77;;
18653;SDS011;9456;47.824;16.228;2023-05-07T06:00:51;6.00;;;5.33;;
18653;SDS011;9456;47.824;16.228;2023-05-07T06:03:20;5.20;;;4.73;;
18653;SDS011;9456;47.824;16.228;2023-05-07T06:05:49;5.70;;;5.10;;
18653;SDS011;9456;47.824;16.228;2023-05-07T06:08:19;5.17;;;4.63;;
18653;SDS011;9456;47.824;16.228;2023-05-07T06:10:47;4.33;;;3.93;;
18653;SDS011;9456;47.824;16.228;2023-05-07T06:13:17;5.77;;;5.10;;
18653;SDS011;9456;47.824;16.228;2023-05-07T06:15:49;6.10;;;5.53;;
18653;SDS011;9456;47.824;16.228;2023-05-07T06:18:18;6.93;;;5.33;;
18653;SDS011;9456;47.824;16.228;2023-05-07T06:20:47;4.97;;;4.47;;
18653;SDS011;9456;47.824;16.228;2023-05-07T06:23:16;7.77;;;5.40;;
18653;SDS011;9456;47.824;16.228;2023-05-07T06:25:47;6.43;;;5.70;;
18653;SDS011;9456;47.824;16.228;2023-05-07T06:28:16;4.97;;;4.57;;
18653;SDS011;9456;47.824;16.228;2023-05-07T06:30:46;6.73;;;6.13;;
18653;SDS011;9456;47.824;16.228;2023-05-07T06:33:15;6.10;;;5.60;;
18653;SDS011;9456;47.824;16.228;2023-05-07T06:35:43;6.67;;;5.90;;
18653;SDS011;9456;47.824;16.228;2023-05-07T06:38:12;7.37;;;6.67;;
18653;SDS011;9456;47.824;16.228;2023-05-07T06:40:41;10.83;;;8.17;;
18653;SDS011;9456;47.824;16.228;2023-05-07T06:43:10;9.33;;;8.33;;
18653;SDS011;9456;47.824;16.228;2023-05-07T06:45:39;10.60;;;9.10;;
18653;SDS011;9456;47.824;16.228;2023-05-07T06:48:08;9.73;;;8.67;;
18653;SDS011;9456;47.824;16.228;2023-05-07T06:50:37;9.97;;;8.73;;
18653;SDS011;9456;47.824;16.228;2023-05-07T06:53:06;11.80;;;9.57;;
18653;SDS011;9456;47.824;16.228;2023-05-07T06:55:35;13.57;;;9.67;;
18653;SDS011;9456;47.824;16.228;2023-05-07T06:58:04;12.10;;;10.60;;
18653;SDS011;9456;47.824;16.228;2023-05-07T07:00:33;11.40;;;10.27;;
18653;SDS011;9456;47.824;16.228;2023-05-07T07:05:30;11.47;;;10.27;;
18653;SDS011;9456;47.824;16.228;2023-05-07T07:07:58;12.30;;;11.00;;
18653;SDS011;9456;47.824;16.228;2023-05-07T07:10:27;11.70;;;10.40;;
18653;SDS011;9456;47.824;16.228;2023-05-07T07:12:56;10.47;;;9.53;;
18653;SDS011;9456;47.824;16.228;2023-05-07T07:15:25;12.43;;;10.23;;
18653;SDS011;9456;47.824;16.228;2023-05-07T07:17:54;12.90;;;9.73;;
18653;SDS011;9456;47.824;16.228;2023-05-07T07:20:23;11.23;;;9.93;;
18653;SDS011;9456;47.824;16.228;2023-05-07T07:22:52;10.30;;;9.40;;
18653;SDS011;9456;47.824;16.228;2023-05-07T07:25:21;10.63;;;9.63;;
18653;SDS011;9456;47.824;16.228;2023-05-07T07:27:50;11.77;;;10.67;;
18653;SDS011;9456;47.824;16.228;2023-05-07T07:30:19;10.33;;;9.33;;
18653;SDS011;9456;47.824;16.228;2023-05-07T07:32:49;9.97;;;9.07;;
18653;SDS011;9456;47.824;16.228;2023-05-07T07:35:18;10.03;;;9.03;;
18653;SDS011;9456;47.824;16.228;2023-05-07T07:37:49;10.67;;;9.67;;
18653;SDS011;9456;47.824;16.228;2023-05-07T07:40:18;10.63;;;9.53;;
18653;SDS011;9456;47.824;16.228;2023-05-07T07:42:47;9.73;;;8.90;;
18653;SDS011;9456;47.824;16.228;2023-05-07T07:45:16;11.10;;;8.60;;
18653;SDS011;9456;47.824;16.228;2023-05-07T07:47:45;10.40;;;8.37;;
18653;SDS011;9456;47.824;16.228;2023-05-07T07:50:15;9.13;;;8.30;;
18653;SDS011;9456;47.824;16.228;2023-05-07T07:52:44;10.20;;;9.20;;
18653;SDS011;9456;47.824;16.228;2023-05-07T07:55:13;10.77;;;9.67;;
18653;SDS011;9456;47.824;16.228;2023-05-07T07:57:42;13.70;;;9.37;;
18653;SDS011;9456;47.824;16.228;2023-05-07T08:00:12;13.40;;;10.97;;
18653;SDS011;9456;47.824;16.228;2023-05-07T08:02:42;12.67;;;11.43;;
18653;SDS011;9456;47.824;16.228;2023-05-07T08:10:07;15.40;;;13.83;;
18653;SDS011;9456;47.824;16.228;2023-05-07T08:12:37;15.27;;;13.67;;
18653;SDS011;9456;47.824;16.228;2023-05-07T08:15:07;15.30;;;13.70;;
18653;SDS011;9456;47.824;16.228;2023-05-07T08:17:37;15.37;;;13.97;;
18653;SDS011;9456;47.824;16.228;2023-05-07T08:20:07;13.97;;;12.67;;
18653;SDS011;9456;47.824;16.228;2023-05-07T10:03:44;16.30;;;14.70;;
18653;SDS011;9456;47.824;16.228;2023-05-07T10:06:13;17.80;;;16.00;;
18653;SDS011;9456;47.824;16.228;2023-05-07T10:08:42;17.73;;;15.93;;
18653;SDS011;9456;47.824;16.228;2023-05-07T10:11:11;23.77;;;16.70;;
18653;SDS011;9456;47.824;16.228;2023-05-07T10:13:40;17.20;;;15.57;;
18653;SDS011;9456;47.824;16.228;2023-05-07T10:16:09;18.07;;;15.10;;
18653;SDS011;9456;47.824;16.228;2023-05-07T10:18:38;15.80;;;14.30;;
18653;SDS011;9456;47.824;16.228;2023-05-07T10:21:08;16.77;;;15.17;;
18653;SDS011;9456;47.824;16.228;2023-05-07T10:23:36;17.17;;;15.33;;
18653;SDS011;9456;47.824;16.228;2023-05-07T10:26:06;15.67;;;14.17;;
18653;SDS011;9456;47.824;16.228;2023-05-07T10:28:36;18.83;;;16.20;;
18653;SDS011;9456;47.824;16.228;2023-05-07T10:31:08;17.60;;;15.90;;
18653;SDS011;9456;47.824;16.228;2023-05-07T10:33:41;19.13;;;17.17;;
18653;SDS011;9456;47.824;16.228;2023-05-07T10:36:10;16.10;;;14.40;;
18653;SDS011;9456;47.824;16.228;2023-05-07T10:38:39;16.47;;;14.73;;
18653;SDS011;9456;47.824;16.228;2023-05-07T10:41:08;16.33;;;14.17;;
18653;SDS011;9456;47.824;16.228;2023-05-07T10:43:41;14.70;;;13.17;;
18653;SDS011;9456;47.824;16.228;2023-05-07T10:46:14;15.70;;;14.10;;
18653;SDS011;9456;47.824;16.228;2023-05-07T10:51:35;16.63;;;14.97;;
18653;SDS011;9456;47.824;16.228;2023-05-07T10:54:20;17.77;;;14.93;;
18653;SDS011;9456;47.824;16.228;2023-05-07T10:56:49;16.40;;;14.70;;
18653;SDS011;9456;47.824;16.228;2023-05-07T10:59:36;15.33;;;13.83;;
18653;SDS011;9456;47.824;16.228;2023-05-07T11:02:09;19.40;;;13.73;;
18653;SDS011;9456;47.824;16.228;2023-05-07T11:20:46;11.83;;;10.73;;
18653;SDS011;9456;47.824;16.228;2023-05-07T11:26:25;15.20;;;12.67;;
18653;SDS011;9456;47.824;16.228;2023-05-07T11:28:54;14.00;;;12.60;;
18653;SDS011;9456;47.824;16.228;2023-05-07T11:31:23;13.97;;;12.67;;
18653;SDS011;9456;47.824;16.228;2023-05-07T11:33:53;18.63;;;14.90;;
18653;SDS011;9456;47.824;16.228;2023-05-07T11:36:23;15.35;;;13.85;;
18653;SDS011;9456;47.824;16.228;2023-05-07T11:38:52;14.03;;;12.33;;
18653;SDS011;9456;47.824;16.228;2023-05-07T11:41:21;12.67;;;11.37;;
18653;SDS011;9456;47.824;16.228;2023-05-07T11:43:58;14.13;;;11.30;;
18653;SDS011;9456;47.824;16.228;2023-05-07T17:26:31;5.20;;;4.70;;
18653;SDS011;9456;47.824;16.228;2023-05-07T17:33:56;5.13;;;4.63;;
18653;SDS011;9456;47.824;16.228;2023-05-07T17:36:25;5.20;;;4.70;;
18653;SDS011;9456;47.824;16.228;2023-05-07T17:38:54;8.15;;;5.20;;
18653;SDS011;9456;47.824;16.228;2023-05-07T17:46:18;6.87;;;4.40;;
18653;SDS011;9456;47.824;16.228;2023-05-07T17:51:14;6.27;;;5.33;;
18653;SDS011;9456;47.824;16.228;2023-05-07T17:53:43;6.95;;;5.30;;
18653;SDS011;9456;47.824;16.228;2023-05-07T17:56:12;5.90;;;5.40;;
18653;SDS011;9456;47.824;16.228;2023-05-07T17:58:41;5.33;;;4.83;;
18653;SDS011;9456;47.824;16.228;2023-05-07T18:01:10;7.00;;;5.33;;
18653;SDS011;9456;47.824;16.228;2023-05-07T18:03:39;5.97;;;5.47;;
18653;SDS011;9456;47.824;16.228;2023-05-07T18:06:08;6.30;;;5.70;;
18653;SDS011;9456;47.824;16.228;2023-05-07T18:08:37;7.60;;;5.70;;
18653;SDS011;9456;47.824;16.228;2023-05-07T18:11:06;6.87;;;5.43;;
18653;SDS011;9456;47.824;16.228;2023-05-07T18:13:35;6.70;;;6.15;;
18653;SDS011;9456;47.824;16.228;2023-05-07T18:16:04;8.93;;;6.00;;
18653;SDS011;9456;47.824;16.228;2023-05-07T18:58:17;7.33;;;6.63;;
18653;SDS011;9456;47.824;16.228;2023-05-07T19:00:46;7.13;;;6.40;;
18653;SDS011;9456;47.824;16.228;2023-05-07T19:03:15;7.37;;;6.73;;
18653;SDS011;9456;47.824;16.228;2023-05-07T19:05:44;7.70;;;6.90;;
18653;SDS011;9456;47.824;16.228;2023-05-07T19:08:13;8.07;;;7.30;;
18653;SDS011;9456;47.824;16.228;2023-05-07T19:10:42;7.53;;;6.80;;
18653;SDS011;9456;47.824;16.228;2023-05-07T19:13:11;10.07;;;7.63;;
18653;SDS011;9456;47.824;16.228;2023-05-07T19:15:40;8.87;;;7.67;;
18653;SDS011;9456;47.824;16.228;2023-05-07T19:18:09;9.27;;;8.37;;
18653;SDS011;9456;47.824;16.228;2023-05-07T19:20:38;8.77;;;7.90;;
18653;SDS011;9456;47.824;16.228;2023-05-07T19:23:07;8.83;;;7.93;;
18653;SDS011;9456;47.824;16.228;2023-05-07T19:25:36;9.43;;;8.43;;
18653;SDS011;9456;47.824;16.228;2023-05-07T19:28:05;8.73;;;7.93;;
18653;SDS011;9456;47.824;16.228;2023-05-07T19:30:36;9.60;;;8.70;;
18653;SDS011;9456;47.824;16.228;2023-05-07T19:33:05;9.67;;;8.67;;
18653;SDS011;9456;47.824;16.228;2023-05-07T19:35:34;9.73;;;8.73;;
18653;SDS011;9456;47.824;16.228;2023-05-07T19:38:03;8.97;;;8.17;;
18653;SDS011;9456;47.824;16.228;2023-05-07T19:40:32;8.70;;;7.90;;
18653;SDS011;9456;47.824;16.228;2023-05-07T19:43:01;8.50;;;7.70;;
18653;SDS011;9456;47.824;16.228;2023-05-07T19:45:30;8.13;;;7.40;;
18653;SDS011;9456;47.824;16.228;2023-05-07T19:47:58;7.50;;;6.80;;
18653;SDS011;9456;47.824;16.228;2023-05-07T19:50:27;6.67;;;6.07;;
18653;SDS011;9456;47.824;16.228;2023-05-07T19:52:56;7.73;;;6.97;;
18653;SDS011;9456;47.824;16.228;2023-05-07T19:55:25;9.43;;;6.90;;
18653;SDS011;9456;47.824;16.228;2023-05-07T19:57:54;8.83;;;8.03;;
18653;SDS011;9456;47.824;16.228;2023-05-07T20:00:23;8.67;;;7.77;;
18653;SDS011;9456;47.824;16.228;2023-05-07T20:02:52;9.30;;;8.40;;
18653;SDS011;9456;47.824;16.228;2023-05-07T20:05:21;9.13;;;8.13;;
18653;SDS011;9456;47.824;16.228;2023-05-07T20:20:09;10.70;;;9.50;;
18653;SDS011;9456;47.824;16.228;2023-05-07T20:52:17;14.13;;;12.00;;
18653;SDS011;9456;47.824;16.228;2023-05-07T20:54:45;16.00;;;12.63;;
18653;SDS011;9456;47.824;16.228;2023-05-07T20:57:14;12.63;;;11.20;;
18653;SDS011;9456;47.824;16.228;2023-05-07T20:59:44;13.17;;;11.73;;
18653;SDS011;9456;47.824;16.228;2023-05-07T21:02:13;15.57;;;13.37;;
18653;SDS011;9456;47.824;16.228;2023-05-07T21:04:42;13.23;;;11.93;;
18653;SDS011;9456;47.824;16.228;2023-05-07T21:07:10;12.93;;;11.63;;
18653;SDS011;9456;47.824;16.228;2023-05-07T21:09:39;13.17;;;11.03;;
18653;SDS011;9456;47.824;16.228;2023-05-07T21:12:08;13.23;;;11.93;;
18653;SDS011;9456;47.824;16.228;2023-05-07T21:14:37;12.83;;;11.53;;
18653;SDS011;9456;47.824;16.228;2023-05-07T21:17:06;13.13;;;11.83;;
18653;SDS011;9456;47.824;16.228;2023-05-07T21:19:35;14.20;;;11.10;;
18653;SDS011;9456;47.824;16.228;2023-05-07T21:22:04;12.77;;;11.57;;
18653;SDS011;9456;47.824;16.228;2023-05-07T21:27:07;14.67;;;12.80;;
18653;SDS011;9456;47.824;16.228;2023-05-07T21:29:36;14.13;;;12.73;;
18653;SDS011;9456;47.824;16.228;2023-05-07T21:32:05;14.27;;;11.77;;
18653;SDS011;9456;47.824;16.228;2023-05-07T21:34:34;13.83;;;12.43;;
18653;SDS011;9456;47.824;16.228;2023-05-07T21:37:03;14.03;;;12.53;;
18653;SDS011;9456;47.824;16.228;2023-05-07T21:39:32;14.10;;;12.60;;
18653;SDS011;9456;47.824;16.228;2023-05-07T21:42:01;16.17;;;13.73;;
18653;SDS011;9456;47.824;16.228;2023-05-07T21:44:30;14.23;;;12.73;;
18653;SDS011;9456;47.824;16.228;2023-05-07T21:46:58;14.20;;;12.83;;
18653;SDS011;9456;47.824;16.228;2023-05-07T21:49:27;15.30;;;13.67;;
18653;SDS011;9456;47.824;16.228;2023-05-07T21:51:56;16.53;;;14.83;;
18653;SDS011;9456;47.824;16.228;2023-05-07T21:54:25;16.23;;;14.20;;
18653;SDS011;9456;47.824;16.228;2023-05-07T21:56:54;16.03;;;14.33;;
18653;SDS011;9456;47.824;16.228;2023-05-07T21:59:24;15.57;;;14.07;;
18653;SDS011;9456;47.824;16.228;2023-05-07T22:01:52;15.80;;;13.70;;
18653;SDS011;9456;47.824;16.228;2023-05-07T22:04:21;14.67;;;13.17;;
18653;SDS011;9456;47.824;16.228;2023-05-07T22:06:50;14.13;;;12.63;;
18653;SDS011;9456;47.824;16.228;2023-05-07T22:09:19;15.43;;;13.37;;
18653;SDS011;9456;47.824;16.228;2023-05-07T22:11:48;16.73;;;14.60;;
18653;SDS011;9456;47.824;16.228;2023-05-07T22:14:17;19.17;;;15.47;;
18653;SDS011;9456;47.824;16.228;2023-05-07T22:16:46;17.90;;;16.00;;
18653;SDS011;9456;47.824;16.228;2023-05-07T22:19:15;18.23;;;16.33;;
18653;SDS011;9456;47.824;16.228;2023-05-07T22:21:44;18.13;;;15.73;;
18653;SDS011;9456;47.824;16.228;2023-05-07T22:24:13;17.40;;;15.50;;
18653;SDS011;9456;47.824;16.228;2023-05-07T22:26:42;20.57;;;16.27;;
18653;SDS011;9456;47.824;16.228;2023-05-07T22:29:11;19.00;;;17.00;;
18653;SDS011;9456;47.824;16.228;2023-05-07T22:31:40;17.63;;;15.73;;
18653;SDS011;9456;47.824;16.228;2023-05-07T22:34:09;17.07;;;15.23;;
18653;SDS011;9456;47.824;16.228;2023-05-07T22:36:38;17.87;;;15.97;;
18653;SDS011;9456;47.824;16.228;2023-05-07T22:39:07;20.33;;;16.63;;
18653;SDS011;9456;47.824;16.228;2023-05-07T22:41:36;18.87;;;16.23;;
18653;SDS011;9456;47.824;16.228;2023-05-07T22:44:05;16.67;;;14.97;;
18653;SDS011;9456;47.824;16.228;2023-05-07T22:46:34;20.67;;;15.80;;
18653;SDS011;9456;47.824;16.228;2023-05-07T22:49:02;17.77;;;15.63;;
18653;SDS011;9456;47.824;16.228;2023-05-07T22:51:31;17.13;;;15.33;;
18653;SDS011;9456;47.824;16.228;2023-05-07T22:54:00;17.67;;;15.70;;
18653;SDS011;9456;47.824;16.228;2023-05-07T22:56:29;17.63;;;15.80;;
18653;SDS011;9456;47.824;16.228;2023-05-07T22:58:58;17.63;;;15.70;;
18653;SDS011;9456;47.824;16.228;2023-05-07T23:01:28;19.00;;;16.40;;
18653;SDS011;9456;47.824;16.228;2023-05-07T23:03:57;19.13;;;17.00;;
18653;SDS011;9456;47.824;16.228;2023-05-07T23:06:26;18.57;;;16.70;;
18653;SDS011;9456;47.824;16.228;2023-05-07T23:08:55;20.17;;;16.60;;
18653;SDS011;9456;47.824;16.228;2023-05-07T23:11:25;16.97;;;15.17;;
18653;SDS011;9456;47.824;16.228;2023-05-07T23:13:54;18.00;;;16.13;;
18653;SDS011;9456;47.824;16.228;2023-05-07T23:16:23;18.10;;;16.20;;
18653;SDS011;9456;47.824;16.228;2023-05-07T23:18:52;17.40;;;15.60;;
18653;SDS011;9456;47.824;16.228;2023-05-07T23:21:21;17.50;;;15.70;;
18653;SDS011;9456;47.824;16.228;2023-05-07T23:23:49;16.63;;;14.93;;
18653;SDS011;9456;47.824;16.228;2023-05-07T23:26:18;18.10;;;16.30;;
18653;SDS011;9456;47.824;16.228;2023-05-07T23:28:47;17.40;;;15.70;;
18653;SDS011;9456;47.824;16.228;2023-05-07T23:31:16;17.50;;;15.67;;
18653;SDS011;9456;47.824;16.228;2023-05-07T23:33:45;17.70;;;15.90;;
18653;SDS011;9456;47.824;16.228;2023-05-07T23:36:14;18.50;;;16.37;;
18653;SDS011;9456;47.824;16.228;2023-05-07T23:38:43;16.90;;;15.10;;
18653;SDS011;9456;47.824;16.228;2023-05-07T23:41:12;19.57;;;16.20;;
18653;SDS011;9456;47.824;16.228;2023-05-07T23:43:41;20.17;;;16.93;;
18653;SDS011;9456;47.824;16.228;2023-05-07T23:46:10;17.47;;;15.63;;
18653;SDS011;9456;47.824;16.228;2023-05-07T23:48:39;17.77;;;15.87;;
18653;SDS011;9456;47.824;16.228;2023-05-07T23:51:08;19.83;;;17.70;;
18653;SDS011;9456;47.824;16.228;2023-05-07T23:53:37;20.63;;;17.73;;
18653;SDS011;9456;47.824;16.228;2023-05-07T23:56:06;18.70;;;16.73;;
18653;SDS011;9456;47.824;16.228;2023-05-07T23:58:35;17.20;;;15.50;;
